| time (UTC) | temp F | wind direction | speed MPH | gust MPH | rain 1hr in | rain 24hr in | rain mn in | humidity % | barometer mb |
| 20260502203403 | 60 | 127 | 1.0 | 4.0 | 0.00 | 0.00 | 0.00 | 94 | 1016.6 |
| 20260502202902 | 59 | 109 | 2.0 | 4.0 | 0.00 | 0.00 | 0.00 | 94 | 1016.6 |
| 20260502202848 | 59 | 131 | 2.0 | 4.0 | 0.00 | 0.00 | 0.00 | 95 | 1016.6 |
| 20260502201843 | 59 | 125 | 1.0 | 5.0 | 0.00 | 0.00 | 0.00 | 95 | 1016.6 |
| 20260502201604 | 59 | 134 | 2.0 | 5.0 | 0.00 | 0.00 | 0.00 | 95 | 1016.6 |
| 20260502200841 | 59 | 116 | 2.0 | 3.0 | 0.00 | 0.00 | 0.00 | 95 | 1016.6 |
| 20260502200341 | 59 | 117 | 0.0 | 2.0 | 0.00 | 0.00 | 0.00 | 96 | 1016.6 |
| 20260502200326 | 58 | 117 | 0.0 | 3.0 | 0.00 | 0.00 | 0.00 | 96 | 1016.6 |
| 20260502195341 | 58 | 117 | 1.0 | 3.0 | 0.00 | 0.00 | 0.00 | 96 | 1016.8 |
| 20260502194842 | 58 | 116 | 0.0 | 1.0 | 0.00 | 0.00 | 0.00 | 96 | 1016.8 |
| 20260502194339 | 58 | 116 | 0.0 | 2.0 | 0.00 | 0.00 | 0.00 | 96 | 1016.9 |
| 20260502193841 | 58 | 116 | 1.0 | 2.0 | 0.00 | 0.00 | 0.00 | 96 | 1017.0 |
| 20260502193338 | 58 | 116 | 0.0 | 2.0 | 0.00 | 0.00 | 0.00 | 96 | 1017.1 |
| 20260502192839 | 58 | 116 | 1.0 | 3.0 | 0.00 | 0.00 | 0.00 | 96 | 1017.0 |
| 20260502192339 | 58 | 123 | 1.0 | 3.0 | 0.00 | 0.00 | 0.00 | 96 | 1017.1 |
| 20260502191839 | 58 | 123 | 1.0 | 2.0 | 0.00 | 0.00 | 0.00 | 96 | 1017.2 |
| 20260502191338 | 58 | 123 | 1.0 | 2.0 | 0.00 | 0.00 | 0.00 | 96 | 1017.1 |
| 20260502190838 | 58 | 123 | 0.0 | 2.0 | 0.00 | 0.00 | 0.00 | 96 | 1017.1 |
| 20260502190339 | 58 | 123 | 0.0 | 2.0 | 0.00 | 0.00 | 0.00 | 96 | 1017.1 |
| 20260502185839 | 58 | 123 | 1.0 | 2.0 | 0.00 | 0.00 | 0.00 | 96 | 1017.2 |
| 20260502185338 | 57 | 123 | 0.0 | 3.0 | 0.00 | 0.00 | 0.00 | 96 | 1017.3 |
| 20260502184838 | 57 | 123 | 1.0 | 3.0 | 0.00 | 0.00 | 0.00 | 96 | 1017.3 |
| 20260502184820 | 57 | 123 | 2.0 | 3.0 | 0.00 | 0.00 | 0.00 | 96 | 1017.3 |
| 20260502183838 | 57 | 124 | 0.0 | 3.0 | 0.00 | 0.00 | 0.00 | 96 | 1017.4 |
| 20260502183600 | 57 | 124 | 1.0 | 6.0 | 0.00 | 0.00 | 0.00 | 96 | 1017.4 |
| 20260502183101 | 57 | 123 | 1.0 | 6.0 | 0.00 | 0.00 | 0.00 | 96 | 1017.5 |
| 20260502182338 | 56 | 76 | 5.0 | 7.0 | 0.00 | 0.00 | 0.00 | 96 | 1017.5 |
| 20260502181838 | 56 | 82 | 5.0 | 7.0 | 0.00 | 0.00 | 0.00 | 96 | 1017.5 |
| 20260502181600 | 56 | 63 | 4.0 | 6.0 | 0.00 | 0.00 | 0.00 | 96 | 1017.4 |
| 20260502180836 | 56 | 79 | 5.0 | 6.0 | 0.00 | 0.00 | 0.00 | 96 | 1017.4 |
| 20260502180604 | 56 | 78 | 5.0 | 7.0 | 0.00 | 0.00 | 0.00 | 96 | 1017.4 |
| 20260502170332 | 56 | 62 | 6.0 | 10.0 | 0.00 | 0.00 | 0.00 | 96 | 1016.8 |
| 20260502164051 | 56 | 55 | 6.0 | 10.0 | 0.00 | 0.00 | 0.00 | 96 | 1017.1 |
| 20260502163332 | 56 | 44 | 6.0 | 9.0 | 0.00 | 0.00 | 0.00 | 96 | 1017.1 |
| 20260502162831 | 56 | 58 | 4.0 | 9.0 | 0.00 | 0.00 | 0.00 | 96 | 1017.1 |
| 20260502162331 | 56 | 61 | 6.0 | 10.0 | 0.00 | 0.00 | 0.00 | 96 | 1017.0 |
| 20260502161831 | 56 | 61 | 6.0 | 13.0 | 0.00 | 0.00 | 0.00 | 96 | 1017.0 |
| 20260502161331 | 56 | 45 | 8.0 | 13.0 | 0.00 | 0.00 | 0.00 | 96 | 1016.8 |
| 20260502161047 | 55 | 51 | 5.0 | 9.0 | 0.00 | 0.00 | 0.00 | 96 | 1016.8 |
| 20260502160331 | 55 | 34 | 7.0 | 12.0 | 0.00 | 0.00 | 0.00 | 96 | 1016.8 |
| 20260502152331 | 54 | 323 | 3.0 | 5.0 | 0.00 | 0.00 | 0.00 | 95 | 1017.2 |
| 20260502151832 | 54 | 324 | 4.0 | 5.0 | 0.00 | 0.00 | 0.00 | 95 | 1017.2 |
| 20260502151324 | 54 | 298 | 3.0 | 4.0 | 0.00 | 0.00 | 0.00 | 95 | 1017.3 |
| 20260502150822 | 54 | 314 | 4.0 | 4.0 | 0.00 | 0.00 | 0.00 | 95 | 1017.1 |
| 20260502150540 | 54 | 314 | 3.0 | 4.0 | 0.00 | 0.00 | 0.00 | 95 | 1017.1 |
| 20260502130731 | 54 | 44 | 2.0 | 6.0 | 0.00 | 0.00 | 0.00 | 94 | 1015.8 |
| 20260502130232 | 54 | 44 | 2.0 | 6.0 | 0.00 | 0.00 | 0.00 | 94 | 1015.9 |
| 20260502123730 | 54 | 42 | 1.0 | 4.0 | 0.00 | 0.00 | 0.00 | 93 | 1015.8 |
| 20260502123229 | 54 | 44 | 2.0 | 4.0 | 0.00 | 0.00 | 0.00 | 93 | 1015.7 |
| 20260502122729 | 54 | 42 | 1.0 | 6.0 | 0.00 | 0.00 | 0.00 | 93 | 1015.7 |
| 20260502122229 | 54 | 41 | 5.0 | 6.0 | 0.00 | 0.00 | 0.00 | 93 | 1015.7 |
| 20260502121729 | 54 | 25 | 4.0 | 6.0 | 0.00 | 0.00 | 0.00 | 93 | 1015.5 |
| 20260502121229 | 54 | 38 | 3.0 | 6.0 | 0.00 | 0.00 | 0.00 | 93 | 1015.5 |
| 20260502120728 | 54 | 31 | 5.0 | 6.0 | 0.00 | 0.00 | 0.00 | 93 | 1015.5 |
| 20260502120446 | 54 | 42 | 3.0 | 6.0 | 0.00 | 0.00 | 0.00 | 93 | 1015.5 |
| 20260502115455 | 54 | 0 | 5.0 | 7.0 | 0.00 | 0.00 | 0.00 | 93 | 1015.6 |
| 20260502114728 | 54 | 41 | 3.0 | 5.0 | 0.00 | 0.00 | 0.00 | 93 | 1015.5 |
| 20260502114227 | 54 | 39 | 4.0 | 5.0 | 0.00 | 0.00 | 0.00 | 93 | 1015.5 |
| 20260502113727 | 54 | 30 | 0.0 | 5.0 | 0.00 | 0.00 | 0.00 | 93 | 1015.7 |
| 20260502113227 | 54 | 28 | 1.0 | 6.0 | 0.00 | 0.00 | 0.00 | 93 | 1015.5 |
| 20260502112727 | 54 | 0 | 3.0 | 6.0 | 0.00 | 0.00 | 0.00 | 93 | 1015.5 |
| 20260502112226 | 54 | 16 | 4.0 | 6.0 | 0.00 | 0.00 | 0.00 | 93 | 1015.3 |
| 20260502111928 | 54 | 52 | 4.0 | 6.0 | 0.00 | 0.00 | 0.00 | 93 | 1015.4 |
| 20260502111916 | 54 | 48 | 4.0 | 6.0 | 0.00 | 0.00 | 0.00 | 93 | 1015.3 |
| 20260502110727 | 54 | 47 | 4.0 | 6.0 | 0.00 | 0.00 | 0.00 | 93 | 1015.3 |
| 20260502110450 | 55 | 51 | 4.0 | 6.0 | 0.00 | 0.00 | 0.00 | 93 | 1015.2 |
| 20260502105727 | 55 | 27 | 4.0 | 6.0 | 0.00 | 0.00 | 0.00 | 93 | 1015.2 |
| 20260502105226 | 55 | 42 | 4.0 | 6.0 | 0.00 | 0.00 | 0.00 | 93 | 1015.2 |
| 20260502104726 | 55 | 38 | 4.0 | 6.0 | 0.00 | 0.00 | 0.00 | 93 | 1015.2 |
| 20260502104226 | 55 | 45 | 4.0 | 5.0 | 0.00 | 0.00 | 0.00 | 94 | 1015.2 |
| 20260502103726 | 55 | 38 | 3.0 | 4.0 | 0.00 | 0.00 | 0.00 | 93 | 1015.2 |
| 20260502103226 | 55 | 30 | 0.0 | 3.0 | 0.00 | 0.00 | 0.00 | 93 | 1015.0 |
| 20260502102725 | 54 | 30 | 1.0 | 3.0 | 0.00 | 0.00 | 0.00 | 93 | 1015.0 |
| 20260502102226 | 54 | 30 | 0.0 | 0.0 | 0.00 | 0.00 | 0.00 | 93 | 1014.8 |
| 20260502101726 | 54 | 31 | 0.0 | 0.0 | 0.00 | 0.00 | 0.00 | 93 | 1014.9 |
| 20260502101226 | 55 | 31 | 0.0 | 0.0 | 0.00 | 0.00 | 0.00 | 93 | 1014.9 |
| 20260502100725 | 55 | 31 | 0.0 | 0.0 | 0.00 | 0.00 | 0.00 | 92 | 1014.8 |
| 20260502100451 | 55 | 31 | 0.0 | 3.0 | 0.00 | 0.00 | 0.00 | 93 | 1014.8 |
| 20260502091231 | 54 | 305 | 2.0 | 4.0 | 0.00 | 0.00 | 0.00 | 91 | 1014.9 |
| 20260502090725 | 54 | 357 | 2.0 | 3.0 | 0.00 | 0.00 | 0.00 | 91 | 1015.0 |
| 20260502090225 | 54 | 348 | 1.0 | 3.0 | 0.00 | 0.00 | 0.00 | 91 | 1015.1 |
| 20260502071222 | 57 | 62 | 1.0 | 2.0 | 0.00 | 0.00 | 0.00 | 88 | 1015.0 |
| 20260502070724 | 57 | 62 | 1.0 | 2.0 | 0.00 | 0.00 | 0.00 | 88 | 1015.0 |
| 20260502070222 | 57 | 62 | 0.0 | 3.0 | 0.00 | 0.00 | 0.00 | 88 | 1015.0 |
| 20260502065946 | 57 | 62 | 2.0 | 3.0 | 0.00 | 0.00 | 0.00 | 88 | 1015.1 |
| 20260502065443 | 57 | 62 | 0.0 | 2.0 | 0.00 | 0.00 | 0.00 | 87 | 1015.1 |
| 20260502065203 | 57 | 62 | 0.0 | 2.0 | 0.00 | 0.00 | 0.00 | 87 | 1015.0 |
| 20260502064221 | 58 | 62 | 0.0 | 2.0 | 0.00 | 0.00 | 0.00 | 86 | 1015.2 |
| 20260502063721 | 58 | 62 | 1.0 | 2.0 | 0.00 | 0.00 | 0.00 | 85 | 1015.1 |
| 20260502063443 | 58 | 62 | 0.0 | 2.0 | 0.00 | 0.00 | 0.00 | 85 | 1015.1 |
| 20260502062722 | 58 | 62 | 0.0 | 3.0 | 0.00 | 0.00 | 0.00 | 85 | 1015.2 |
| 20260502062220 | 58 | 62 | 2.0 | 4.0 | 0.00 | 0.00 | 0.00 | 84 | 1015.1 |
| 20260502061721 | 59 | 62 | 3.0 | 4.0 | 0.00 | 0.00 | 0.00 | 84 | 1015.0 |
| 20260502061220 | 59 | 62 | 2.0 | 4.0 | 0.00 | 0.00 | 0.00 | 83 | 1015.0 |
| 20260502060721 | 60 | 55 | 2.0 | 3.0 | 0.00 | 0.00 | 0.00 | 83 | 1015.1 |
| 20260502060440 | 60 | 54 | 2.0 | 2.0 | 0.00 | 0.00 | 0.00 | 83 | 1015.0 |
| 20260502055721 | 60 | 54 | 1.0 | 2.0 | 0.00 | 0.00 | 0.00 | 83 | 1015.0 |
| 20260502055220 | 60 | 54 | 1.0 | 2.0 | 0.00 | 0.00 | 0.00 | 83 | 1015.0 |
| 20260502054720 | 60 | 54 | 0.0 | 0.0 | 0.00 | 0.00 | 0.00 | 83 | 1014.9 |
| 20260502054221 | 61 | 54 | 0.0 | 0.0 | 0.00 | 0.00 | 0.00 | 83 | 1014.9 |
| 20260502054211 | 61 | 54 | 0.0 | 0.0 | 0.00 | 0.00 | 0.00 | 82 | 1014.9 |
| 20260502053219 | 61 | 54 | 0.0 | 0.0 | 0.00 | 0.00 | 0.00 | 82 | 1014.8 |
| 20260502052719 | 61 | 54 | 0.0 | 0.0 | 0.00 | 0.00 | 0.00 | 83 | 1014.8 |
| 20260502052219 | 61 | 54 | 0.0 | 0.0 | 0.00 | 0.00 | 0.00 | 83 | 1014.8 |
| 20260502051719 | 61 | 54 | 0.0 | 2.0 | 0.00 | 0.00 | 0.00 | 83 | 1014.8 |
| 20260502051221 | 61 | 54 | 1.0 | 2.0 | 0.00 | 0.00 | 0.00 | 83 | 1014.8 |
| 20260502050719 | 61 | 54 | 1.0 | 3.0 | 0.00 | 0.00 | 0.00 | 83 | 1014.9 |
| 20260502050219 | 61 | 54 | 1.0 | 3.0 | 0.00 | 0.00 | 0.00 | 84 | 1014.9 |
| 20260502045719 | 61 | 54 | 1.0 | 3.0 | 0.00 | 0.00 | 0.00 | 84 | 1014.9 |
| 20260502045219 | 60 | 54 | 0.0 | 1.0 | 0.00 | 0.00 | 0.00 | 84 | 1015.0 |
| 20260502044718 | 60 | 54 | 0.0 | 1.0 | 0.00 | 0.00 | 0.00 | 84 | 1015.1 |
| 20260502044219 | 60 | 54 | 0.0 | 2.0 | 0.00 | 0.00 | 0.00 | 84 | 1015.0 |
| 20260502043718 | 60 | 54 | 0.0 | 2.0 | 0.00 | 0.00 | 0.00 | 85 | 1015.1 |
| 20260502043220 | 60 | 54 | 0.0 | 2.0 | 0.00 | 0.00 | 0.00 | 84 | 1015.1 |
| 20260502042719 | 60 | 54 | 0.0 | 3.0 | 0.00 | 0.00 | 0.00 | 84 | 1015.0 |
| 20260502042218 | 60 | 54 | 1.0 | 3.0 | 0.00 | 0.00 | 0.00 | 84 | 1015.0 |
| 20260502041718 | 60 | 55 | 0.0 | 3.0 | 0.00 | 0.00 | 0.00 | 84 | 1014.9 |
| 20260502041218 | 60 | 55 | 1.0 | 2.0 | 0.00 | 0.00 | 0.00 | 84 | 1014.9 |
| 20260502040717 | 60 | 55 | 1.0 | 2.0 | 0.00 | 0.00 | 0.00 | 84 | 1014.8 |
| 20260502040218 | 60 | 56 | 0.0 | 2.0 | 0.00 | 0.00 | 0.00 | 84 | 1014.7 |
| 20260502035717 | 60 | 56 | 1.0 | 2.0 | 0.00 | 0.00 | 0.00 | 84 | 1014.7 |
| 20260502035440 | 59 | 118 | 0.0 | 2.0 | 0.00 | 0.00 | 0.00 | 84 | 1014.7 |
| 20260502034717 | 59 | 114 | 1.0 | 2.0 | 0.00 | 0.00 | 0.00 | 84 | 1014.8 |
| 20260502034216 | 0 | 111 | 0.0 | 0.0 | 0.00 | 0.00 | 0.00 | 1014.8 | |
| 20260502033716 | 59 | 111 | 0.0 | 0.0 | 0.00 | 0.00 | 0.00 | 84 | 1014.7 |
| 20260502033216 | 59 | 116 | 0.0 | 0.0 | 0.00 | 0.00 | 0.00 | 83 | 1014.8 |
| 20260502032934 | 59 | 116 | 0.0 | 0.0 | 0.00 | 0.00 | 0.00 | 83 | 1014.7 |
| 20260502032216 | 59 | 118 | 0.0 | 0.0 | 0.00 | 0.00 | 0.00 | 83 | 1014.7 |
| 20260502031715 | 59 | 123 | 0.0 | 0.0 | 0.00 | 0.00 | 0.00 | 83 | 1014.7 |
| 20260502031217 | 60 | 121 | 0.0 | 0.0 | 0.00 | 0.00 | 0.00 | 82 | 1014.7 |
| 20260502030715 | 60 | 121 | 0.0 | 0.0 | 0.00 | 0.00 | 0.00 | 81 | 1014.7 |
| 20260502030204 | 60 | 121 | 0.0 | 0.0 | 0.00 | 0.00 | 0.00 | 81 | 1014.8 |
| 20260502025702 | 60 | 121 | 0.0 | 0.0 | 0.00 | 0.00 | 0.00 | 80 | 1014.7 |
| 20260502025203 | 60 | 121 | 0.0 | 0.0 | 0.00 | 0.00 | 0.00 | 79 | 1014.7 |
| 20260502024703 | 61 | 121 | 0.0 | 0.0 | 0.00 | 0.00 | 0.00 | 78 | 1014.7 |
| 20260502024204 | 61 | 121 | 0.0 | 0.0 | 0.00 | 0.00 | 0.00 | 76 | 1014.7 |
| 20260502023702 | 62 | 121 | 0.0 | 0.0 | 0.00 | 0.00 | 0.00 | 76 | 1014.7 |
| 20260502023202 | 62 | 121 | 0.0 | 0.0 | 0.00 | 0.00 | 0.00 | 75 | 1014.7 |
| 20260502022922 | 63 | 121 | 0.0 | 0.0 | 0.00 | 0.00 | 0.00 | 74 | 1014.7 |
| 20260502022203 | 64 | 121 | 0.0 | 1.0 | 0.00 | 0.00 | 0.00 | 73 | 1014.8 |
| 20260502021922 | 64 | 121 | 1.0 | 1.0 | 0.00 | 0.00 | 0.00 | 72 | 1014.8 |
| 20260502021202 | 65 | 121 | 0.0 | 0.0 | 0.00 | 0.00 | 0.00 | 72 | 1014.8 |
| 20260502020702 | 65 | 121 | 0.0 | 0.0 | 0.00 | 0.00 | 0.00 | 72 | 1014.9 |
| 20260502020202 | 65 | 121 | 0.0 | 1.0 | 0.00 | 0.00 | 0.00 | 72 | 1015.0 |
| 20260502015702 | 65 | 121 | 0.0 | 1.0 | 0.00 | 0.00 | 0.00 | 72 | 1014.9 |
| 20260502015202 | 65 | 121 | 0.0 | 1.0 | 0.00 | 0.00 | 0.00 | 72 | 1015.0 |
| 20260502014702 | 66 | 121 | 1.0 | 1.0 | 0.00 | 0.00 | 0.00 | 72 | 1015.0 |
| 20260502014202 | 66 | 121 | 1.0 | 2.0 | 0.00 | 0.00 | 0.00 | 71 | 1015.0 |
| 20260502013703 | 66 | 121 | 0.0 | 2.0 | 0.00 | 0.00 | 0.00 | 71 | 1015.0 |
| 20260502013418 | 66 | 121 | 0.0 | 2.0 | 0.00 | 0.00 | 0.00 | 71 | 1015.0 |
| 20260502012919 | 67 | 121 | 1.0 | 2.0 | 0.00 | 0.00 | 0.00 | 71 | 1014.9 |
| 20260502012410 | 67 | 121 | 1.0 | 2.0 | 0.00 | 0.00 | 0.00 | 72 | 1015.0 |
| 20260502011906 | 67 | 121 | 1.0 | 2.0 | 0.00 | 0.00 | 0.00 | 72 | 1014.9 |
| 20260502011147 | 67 | 121 | 1.0 | 4.0 | 0.00 | 0.00 | 0.00 | 71 | 1014.9 |
| 20260502010906 | 67 | 121 | 1.0 | 4.0 | 0.00 | 0.00 | 0.00 | 71 | 1015.0 |
| 20260502010141 | 67 | 116 | 2.0 | 4.0 | 0.00 | 0.00 | 0.00 | 71 | 1015.0 |
| 20260502010124 | 67 | 127 | 2.0 | 4.0 | 0.00 | 0.00 | 0.00 | 71 | 1015.0 |
| 20260502005132 | 67 | 131 | 2.0 | 4.0 | 0.00 | 0.00 | 0.00 | 71 | 1014.9 |
| 20260502004632 | 67 | 138 | 2.0 | 4.0 | 0.00 | 0.00 | 0.00 | 72 | 1015.0 |
| 20260502004131 | 66 | 130 | 1.0 | 4.0 | 0.00 | 0.00 | 0.00 | 73 | 1015.0 |
| 20260502003632 | 66 | 124 | 2.0 | 4.0 | 0.00 | 0.00 | 0.00 | 73 | 1015.1 |
| 20260502003352 | 66 | 154 | 2.0 | 5.0 | 0.00 | 0.00 | 0.00 | 73 | 1015.0 |
| 20260502002632 | 65 | 162 | 3.0 | 7.0 | 0.00 | 0.00 | 0.00 | 73 | 1015.1 |
| 20260502002132 | 65 | 151 | 2.0 | 9.0 | 0.00 | 0.00 | 0.00 | 75 | 1015.1 |
| 20260502001632 | 65 | 200 | 4.0 | 9.0 | 0.00 | 0.00 | 0.00 | 75 | 1015.1 |
| 20260502001355 | 64 | 141 | 4.0 | 7.0 | 0.00 | 0.00 | 0.00 | 75 | 1015.1 |
| 20260502000631 | 64 | 162 | 4.0 | 7.0 | 0.00 | 0.00 | 0.00 | 76 | 1015.2 |
| 20260502000132 | 64 | 151 | 4.0 | 7.0 | 0.00 | 0.00 | 0.00 | 76 | 1015.2 |
| 20260501235858 | 64 | 157 | 4.0 | 7.0 | 0.00 | 0.00 | 0.00 | 76 | 1015.3 |
| 20260501235131 | 64 | 176 | 5.0 | 10.0 | 0.00 | 0.00 | 0.00 | 75 | 1015.3 |
| 20260501234632 | 64 | 171 | 5.0 | 12.0 | 0.00 | 0.00 | 0.00 | 75 | 1015.3 |
| 20260501234131 | 64 | 144 | 6.0 | 12.0 | 0.00 | 0.00 | 0.00 | 74 | 1015.4 |
| 20260501233631 | 64 | 157 | 6.0 | 12.0 | 0.00 | 0.00 | 0.00 | 74 | 1015.5 |
| 20260501233130 | 64 | 189 | 7.0 | 12.0 | 0.00 | 0.00 | 0.00 | 73 | 1015.5 |
| 20260501232633 | 65 | 180 | 6.0 | 9.0 | 0.00 | 0.00 | 0.00 | 73 | 1015.5 |
| 20260501232345 | 65 | 182 | 5.0 | 13.0 | 0.00 | 0.00 | 0.00 | 72 | 1015.7 |
| 20260501231629 | 65 | 197 | 6.0 | 13.0 | 0.00 | 0.00 | 0.00 | 72 | 1015.6 |
| 20260501231121 | 66 | 182 | 6.0 | 12.0 | 0.00 | 0.00 | 0.00 | 71 | 1015.7 |
| 20260501230844 | 67 | 157 | 7.0 | 12.0 | 0.00 | 0.00 | 0.00 | 70 | 1015.8 |
| 20260501230110 | 68 | 183 | 5.0 | 10.0 | 0.00 | 0.00 | 0.00 | 69 | 1015.9 |
| 20260501225838 | 69 | 148 | 6.0 | 9.0 | 0.00 | 0.00 | 0.00 | 68 | 1015.9 |
| 20260501225109 | 69 | 148 | 4.0 | 9.0 | 0.00 | 0.00 | 0.00 | 69 | 1015.9 |
| 20260501224829 | 68 | 165 | 5.0 | 7.0 | 0.00 | 0.00 | 0.00 | 69 | 1016.0 |
| 20260501224334 | 69 | 144 | 4.0 | 9.0 | 0.00 | 0.00 | 0.00 | 69 | 1016.0 |
| 20260501223608 | 68 | 158 | 6.0 | 9.0 | 0.00 | 0.00 | 0.00 | 69 | 1016.1 |
| 20260501223108 | 69 | 144 | 4.0 | 10.0 | 0.00 | 0.00 | 0.00 | 69 | 1016.1 |
| 20260501222609 | 68 | 137 | 4.0 | 10.0 | 0.00 | 0.00 | 0.00 | 69 | 1016.2 |
| 20260501222109 | 69 | 173 | 6.0 | 11.0 | 0.00 | 0.00 | 0.00 | 68 | 1016.3 |
| 20260501221609 | 69 | 165 | 6.0 | 11.0 | 0.00 | 0.00 | 0.00 | 67 | 1016.4 |
| 20260501221108 | 70 | 142 | 3.0 | 11.0 | 0.00 | 0.00 | 0.00 | 68 | 1016.3 |
| 20260501220607 | 71 | 142 | 4.0 | 10.0 | 0.00 | 0.00 | 0.00 | 66 | 1016.4 |
| 20260501220107 | 71 | 131 | 3.0 | 10.0 | 0.00 | 0.00 | 0.00 | 68 | 1016.5 |
| 20260501215825 | 71 | 124 | 4.0 | 9.0 | 0.00 | 0.00 | 0.00 | 66 | 1016.5 |
| 20260501215107 | 71 | 130 | 4.0 | 7.0 | 0.00 | 0.00 | 0.00 | 67 | 1016.7 |
| 20260501214606 | 71 | 128 | 2.0 | 11.0 | 0.00 | 0.00 | 0.00 | 68 | 1016.7 |
| 20260501214107 | 71 | 186 | 6.0 | 11.0 | 0.00 | 0.00 | 0.00 | 65 | 1016.8 |
| 20260501213607 | 71 | 133 | 3.0 | 9.0 | 0.00 | 0.00 | 0.00 | 66 | 1016.9 |
| 20260501213106 | 72 | 159 | 5.0 | 9.0 | 0.00 | 0.00 | 0.00 | 66 | 1017.0 |
| 20260501212606 | 72 | 149 | 4.0 | 9.0 | 0.00 | 0.00 | 0.00 | 66 | 1016.9 |
| 20260501212554 | 72 | 159 | 4.0 | 6.0 | 0.00 | 0.00 | 0.00 | 65 | 1016.9 |
| 20260501211831 | 72 | 120 | 2.0 | 6.0 | 0.00 | 0.00 | 0.00 | 65 | 1016.9 |
| 20260501211334 | 72 | 171 | 2.0 | 12.0 | 0.00 | 0.00 | 0.00 | 66 | 1016.9 |
| 20260501210606 | 72 | 152 | 3.0 | 12.0 | 0.00 | 0.00 | 0.00 | 66 | 1016.9 |
| 20260501210108 | 72 | 158 | 3.0 | 6.0 | 0.00 | 0.00 | 0.00 | 67 | 1016.9 |
| 20260501205605 | 72 | 135 | 3.0 | 6.0 | 0.00 | 0.00 | 0.00 | 66 | 1017.0 |
| 20260501205106 | 72 | 134 | 3.0 | 9.0 | 0.00 | 0.00 | 0.00 | 65 | 1017.0 |
| 20260501204606 | 72 | 135 | 4.0 | 9.0 | 0.00 | 0.00 | 0.00 | 65 | 1017.0 |
| 20260501204106 | 72 | 128 | 2.0 | 7.0 | 0.00 | 0.00 | 0.00 | 67 | 1016.9 |
| 20260501203834 | 72 | 113 | 3.0 | 7.0 | 0.00 | 0.00 | 0.00 | 67 | 1016.9 |